createdAt,value
2017-11-07T00:01:06.232Z,0
2017-11-07T00:02:18.840Z,0
2017-11-07T00:03:31.097Z,0
2017-11-07T00:04:43.385Z,0
2017-11-07T00:05:55.665Z,0
2017-11-07T00:07:08.331Z,0
2017-11-07T00:08:20.602Z,0
2017-11-07T00:09:33.203Z,0
2017-11-07T00:10:45.470Z,0
2017-11-07T00:11:57.733Z,0
2017-11-07T00:13:10.359Z,0
2017-11-07T00:14:22.957Z,0
2017-11-07T00:15:35.552Z,0
2017-11-07T00:16:48.145Z,0
2017-11-07T00:18:00.763Z,0
2017-11-07T00:19:13.388Z,0
2017-11-07T00:20:25.342Z,0
2017-11-07T00:21:37.948Z,0
2017-11-07T00:22:50.551Z,0
2017-11-07T00:24:02.840Z,0
2017-11-07T00:25:15.440Z,0
2017-11-07T00:26:27.735Z,0
2017-11-07T00:27:40.354Z,0
2017-11-07T00:28:52.972Z,0
2017-11-07T00:30:05.294Z,0
2017-11-07T00:31:17.900Z,0
2017-11-07T00:32:30.516Z,0
2017-11-07T00:33:42.812Z,0
2017-11-07T00:34:55.457Z,0
2017-11-07T00:36:06.778Z,0
2017-11-07T00:37:19.379Z,0
2017-11-07T00:38:31.992Z,0
2017-11-07T00:39:44.617Z,0
2017-11-07T00:40:56.582Z,0
2017-11-07T00:42:09.200Z,0
2017-11-07T00:43:21.178Z,0
2017-11-07T00:44:33.795Z,0
2017-11-07T00:45:46.068Z,0
2017-11-07T00:46:58.665Z,0
2017-11-07T00:48:10.961Z,0
2017-11-07T00:49:23.254Z,0
2017-11-07T00:50:35.848Z,0
2017-11-07T00:51:47.822Z,0
2017-11-07T00:53:00.133Z,0
2017-11-07T00:54:12.436Z,0
2017-11-07T00:55:25.051Z,0
2017-11-07T00:56:37.654Z,0
2017-11-07T00:57:50.273Z,0
2017-11-07T00:59:02.872Z,0
2017-11-07T01:00:15.742Z,0
2017-11-07T01:01:28.064Z,0
2017-11-07T01:02:40.692Z,0
2017-11-07T01:03:53.280Z,0
2017-11-07T01:05:05.571Z,0
2017-11-07T01:06:18.160Z,0
2017-11-07T01:07:30.754Z,0
2017-11-07T01:08:43.057Z,0
2017-11-07T01:09:55.686Z,0
2017-11-07T01:11:07.974Z,0
2017-11-07T01:12:20.573Z,0
2017-11-07T01:13:33.219Z,0
2017-11-07T01:14:45.507Z,0
2017-11-07T01:15:58.136Z,0
2017-11-07T01:17:10.436Z,0
2017-11-07T01:18:22.706Z,0
2017-11-07T01:19:35.320Z,0
2017-11-07T01:20:47.598Z,0
2017-11-07T01:22:00.178Z,0
2017-11-07T01:23:12.430Z,0
2017-11-07T01:24:24.409Z,0
2017-11-07T01:25:36.374Z,0
2017-11-07T01:26:48.969Z,0
2017-11-07T01:28:01.256Z,0
2017-11-07T01:29:13.851Z,0
2017-11-07T01:30:26.461Z,0
2017-11-07T01:31:39.104Z,0
2017-11-07T01:32:51.948Z,0
2017-11-07T01:34:03.600Z,0
2017-11-07T01:35:16.237Z,0
2017-11-07T01:36:28.529Z,0
2017-11-07T01:37:40.804Z,0
2017-11-07T01:38:53.400Z,0
2017-11-07T01:40:05.991Z,0
2017-11-07T01:41:18.270Z,0
2017-11-07T01:42:30.929Z,0
2017-11-07T01:43:43.512Z,0
2017-11-07T01:44:56.155Z,0
2017-11-07T01:46:08.749Z,0
2017-11-07T01:47:21.365Z,0
2017-11-07T01:48:33.971Z,0
2017-11-07T01:49:46.589Z,0
2017-11-07T01:50:59.207Z,0
2017-11-07T01:52:11.806Z,0
2017-11-07T01:53:24.073Z,0
2017-11-07T01:54:36.671Z,0
2017-11-07T01:55:49.281Z,0
2017-11-07T01:57:01.881Z,0
2017-11-07T01:58:14.154Z,0
2017-11-07T01:59:26.343Z,0
2017-11-07T02:00:38.621Z,0
2017-11-07T02:01:51.213Z,0
2017-11-07T02:03:03.488Z,0
2017-11-07T02:04:16.089Z,0
2017-11-07T02:05:28.685Z,0
2017-11-07T02:06:40.654Z,0
2017-11-07T02:07:53.254Z,0
2017-11-07T02:09:05.896Z,0
2017-11-07T02:10:18.153Z,0
2017-11-07T02:11:30.432Z,0
2017-11-07T02:12:43.028Z,0
2017-11-07T02:13:55.315Z,0
2017-11-07T02:15:07.923Z,0
2017-11-07T02:16:20.540Z,0
2017-11-07T02:17:33.135Z,0
2017-11-07T02:18:45.738Z,0
2017-11-07T02:19:58.326Z,0
2017-11-07T02:21:10.926Z,0
2017-11-07T02:22:23.545Z,0
2017-11-07T02:23:35.837Z,0
2017-11-07T02:24:48.463Z,0
2017-11-07T02:26:00.422Z,0
2017-11-07T02:27:12.396Z,0
2017-11-07T02:28:25.001Z,0
2017-11-07T02:29:37.593Z,0
2017-11-07T02:30:49.911Z,0
2017-11-07T02:32:02.441Z,0
2017-11-07T02:33:15.058Z,0
2017-11-07T02:34:27.677Z,0
2017-11-07T02:35:39.650Z,0
2017-11-07T02:36:52.270Z,0
2017-11-07T02:38:04.569Z,0
2017-11-07T02:39:16.849Z,0
2017-11-07T02:40:29.444Z,0
2017-11-07T02:41:41.723Z,0
2017-11-07T02:42:54.322Z,0
2017-11-07T02:44:06.970Z,0
2017-11-07T02:45:19.632Z,0
2017-11-07T02:46:31.929Z,0
2017-11-07T02:47:44.226Z,0
2017-11-07T02:48:56.208Z,0
2017-11-07T02:50:08.847Z,0
2017-11-07T02:51:21.466Z,0
2017-11-07T02:52:34.088Z,0
2017-11-07T02:53:46.403Z,0
2017-11-07T02:54:58.707Z,0
2017-11-07T02:56:11.316Z,0
2017-11-07T02:57:23.916Z,0
2017-11-07T02:58:36.212Z,0
2017-11-07T02:59:49.082Z,0
2017-11-07T03:01:01.682Z,0
2017-11-07T03:02:13.977Z,0
2017-11-07T03:03:26.576Z,0
2017-11-07T03:04:38.543Z,0
2017-11-07T03:05:50.543Z,0
2017-11-07T03:07:03.155Z,0
2017-11-07T03:08:15.782Z,0
2017-11-07T03:09:28.401Z,0
2017-11-07T03:10:40.993Z,0
2017-11-07T03:11:53.292Z,0
2017-11-07T03:13:05.913Z,0
2017-11-07T03:14:18.508Z,0
2017-11-07T03:15:30.471Z,0
2017-11-07T03:16:43.103Z,0
2017-11-07T03:17:55.718Z,0
2017-11-07T03:19:08.314Z,0
2017-11-07T03:20:20.587Z,0
2017-11-07T03:21:33.199Z,0
2017-11-07T03:22:45.805Z,0
2017-11-07T03:23:58.112Z,0
2017-11-07T03:25:10.395Z,0
2017-11-07T03:26:22.654Z,0
2017-11-07T03:27:34.611Z,0
2017-11-07T03:28:47.228Z,0
2017-11-07T03:29:59.526Z,0
2017-11-07T03:31:11.849Z,0
2017-11-07T03:32:23.789Z,0
2017-11-07T03:33:36.389Z,0
2017-11-07T03:34:48.635Z,0
2017-11-07T03:36:00.926Z,0
2017-11-07T03:37:13.201Z,0
2017-11-07T03:38:25.798Z,0
2017-11-07T03:39:38.113Z,0
2017-11-07T03:40:50.415Z,0
2017-11-07T03:42:02.986Z,0
2017-11-07T03:43:15.901Z,0
2017-11-07T03:44:28.499Z,0
2017-11-07T03:45:41.125Z,0
2017-11-07T03:46:53.737Z,0
2017-11-07T03:48:06.011Z,0
2017-11-07T03:49:18.308Z,0
2017-11-07T03:50:30.891Z,0
2017-11-07T03:51:43.515Z,0
2017-11-07T03:52:56.141Z,0
2017-11-07T03:54:08.761Z,0
2017-11-07T03:55:20.708Z,0
2017-11-07T03:56:32.995Z,0
2017-11-07T03:57:45.600Z,0
2017-11-07T03:58:57.890Z,0
2017-11-07T04:00:10.517Z,0
2017-11-07T04:01:23.136Z,0
2017-11-07T04:02:35.711Z,0
2017-11-07T04:03:47.704Z,0
2017-11-07T04:05:00.565Z,0
2017-11-07T04:06:12.811Z,0
2017-11-07T04:07:25.418Z,0
2017-11-07T04:08:37.719Z,0
2017-11-07T04:09:50.350Z,0
2017-11-07T04:11:02.646Z,0
2017-11-07T04:12:14.627Z,0
2017-11-07T04:13:27.244Z,0
2017-11-07T04:14:39.541Z,0
2017-11-07T04:15:51.827Z,0
2017-11-07T04:17:04.481Z,0
2017-11-07T04:18:17.077Z,0
2017-11-07T04:19:29.371Z,0
2017-11-07T04:20:41.988Z,0
2017-11-07T04:21:54.587Z,0
2017-11-07T04:23:06.884Z,0
2017-11-07T04:24:19.479Z,0
2017-11-07T04:25:31.769Z,0
2017-11-07T04:26:44.403Z,0
2017-11-07T04:27:57.009Z,0
2017-11-07T04:29:09.316Z,0
2017-11-07T04:30:21.584Z,0
2017-11-07T04:31:33.869Z,0
2017-11-07T04:32:46.513Z,0
2017-11-07T04:33:58.796Z,0
2017-11-07T04:35:11.416Z,0
2017-11-07T04:36:23.712Z,0
2017-11-07T04:37:36.249Z,0
2017-11-07T04:38:48.855Z,0
2017-11-07T04:40:01.424Z,0
2017-11-07T04:41:13.719Z,0
2017-11-07T04:42:26.618Z,0
2017-11-07T04:43:39.234Z,0
2017-11-07T04:44:51.531Z,0
2017-11-07T04:46:03.824Z,0
2017-11-07T04:47:15.775Z,0
2017-11-07T04:48:28.391Z,0
2017-11-07T04:49:40.988Z,0
2017-11-07T04:50:53.308Z,0
2017-11-07T04:52:05.919Z,0
2017-11-07T04:53:18.522Z,0
2017-11-07T04:54:31.117Z,0
2017-11-07T04:55:43.767Z,0
2017-11-07T04:56:56.087Z,0
2017-11-07T04:58:08.697Z,0
2017-11-07T04:59:20.958Z,0
2017-11-07T05:00:32.927Z,0
2017-11-07T05:01:45.212Z,0
2017-11-07T05:02:57.192Z,0
2017-11-07T05:04:09.487Z,0
2017-11-07T05:05:22.104Z,0
2017-11-07T05:06:34.381Z,0
2017-11-07T05:07:46.998Z,0
2017-11-07T05:08:59.635Z,0
2017-11-07T05:10:11.839Z,0
2017-11-07T05:11:24.123Z,0
2017-11-07T05:12:36.108Z,0
2017-11-07T05:13:48.727Z,0
2017-11-07T05:15:00.695Z,0
2017-11-07T05:16:12.346Z,0
2017-11-07T05:17:24.988Z,0
2017-11-07T05:18:36.934Z,0
2017-11-07T05:19:49.179Z,0
2017-11-07T05:21:01.463Z,0
2017-11-07T05:22:14.071Z,0
2017-11-07T05:23:26.684Z,0
2017-11-07T05:24:39.309Z,0
2017-11-07T05:25:51.910Z,0
2017-11-07T05:27:04.200Z,0
2017-11-07T05:28:16.171Z,0
2017-11-07T05:29:28.799Z,0
2017-11-07T05:30:41.069Z,0
2017-11-07T05:31:53.033Z,0
2017-11-07T05:33:05.336Z,0
2017-11-07T05:34:17.304Z,0
2017-11-07T05:35:29.596Z,0
2017-11-07T05:36:41.886Z,0
2017-11-07T05:37:54.482Z,0
2017-11-07T05:39:06.781Z,0
2017-11-07T05:40:19.053Z,0
2017-11-07T05:41:31.654Z,0
2017-11-07T05:42:44.214Z,0
2017-11-07T05:43:56.193Z,0
2017-11-07T05:45:08.542Z,0
2017-11-07T05:46:21.130Z,0
2017-11-07T05:47:33.405Z,0
2017-11-07T05:48:46.001Z,0
2017-11-07T05:49:57.971Z,0
2017-11-07T05:51:10.588Z,0
2017-11-07T05:52:22.890Z,0
2017-11-07T05:53:35.188Z,0
2017-11-07T05:54:47.817Z,0
2017-11-07T05:56:00.418Z,0
2017-11-07T05:57:12.362Z,0
2017-11-07T05:58:24.965Z,0
2017-11-07T05:59:37.282Z,0
2017-11-07T06:00:49.257Z,0
2017-11-07T06:02:01.549Z,0
2017-11-07T06:03:13.800Z,0
2017-11-07T06:04:26.085Z,0
2017-11-07T06:05:38.662Z,0
2017-11-07T06:06:51.285Z,5
2017-11-07T06:08:03.880Z,5
2017-11-07T06:09:16.752Z,5
2017-11-07T06:10:29.036Z,5
2017-11-07T06:11:41.661Z,5
2017-11-07T06:12:54.255Z,5
2017-11-07T06:14:06.873Z,10
2017-11-07T06:15:19.143Z,10
2017-11-07T06:16:31.747Z,10
2017-11-07T06:17:44.044Z,10
2017-11-07T06:18:56.040Z,10
2017-11-07T06:20:08.311Z,15
2017-11-07T06:21:20.249Z,15
2017-11-07T06:22:32.849Z,15
2017-11-07T06:23:45.129Z,15
2017-11-07T06:24:57.765Z,20
2017-11-07T06:26:10.040Z,20
2017-11-07T06:27:22.338Z,20
2017-11-07T06:28:34.658Z,20
2017-11-07T06:29:47.277Z,25
2017-11-07T06:30:59.862Z,25
2017-11-07T06:32:12.486Z,30
2017-11-07T06:33:25.085Z,30
2017-11-07T06:34:37.712Z,30
2017-11-07T06:35:50.327Z,35
2017-11-07T06:37:02.300Z,35
2017-11-07T06:38:14.921Z,35
2017-11-07T06:39:27.191Z,35
2017-11-07T06:40:39.783Z,40
2017-11-07T06:41:52.383Z,40
2017-11-07T06:43:04.653Z,40
2017-11-07T06:44:16.929Z,40
2017-11-07T06:45:29.512Z,45
2017-11-07T06:46:41.830Z,45
2017-11-07T06:47:54.437Z,45
2017-11-07T06:49:07.057Z,50
2017-11-07T06:50:19.352Z,50
2017-11-07T06:51:31.963Z,50
2017-11-07T06:52:44.269Z,50
2017-11-07T06:53:56.864Z,55
2017-11-07T06:55:09.211Z,55
2017-11-07T06:56:21.173Z,55
2017-11-07T06:57:33.766Z,55
2017-11-07T06:58:46.294Z,60
2017-11-07T06:59:58.889Z,60
2017-11-07T07:01:10.509Z,60
2017-11-07T07:02:23.109Z,60
2017-11-07T07:03:35.722Z,65
2017-11-07T07:04:48.002Z,65
2017-11-07T07:06:00.292Z,65
2017-11-07T07:07:12.933Z,65
2017-11-07T07:08:25.234Z,70
2017-11-07T07:09:37.833Z,70
2017-11-07T07:10:50.433Z,70
2017-11-07T07:12:03.024Z,70
2017-11-07T07:13:15.323Z,75
2017-11-07T07:14:27.615Z,75
2017-11-07T07:15:39.583Z,75
2017-11-07T07:16:52.185Z,80
2017-11-07T07:18:04.802Z,80
2017-11-07T07:19:17.413Z,80
2017-11-07T07:20:29.651Z,80
2017-11-07T07:21:41.610Z,85
2017-11-07T07:22:53.911Z,85
2017-11-07T07:24:05.881Z,85
2017-11-07T07:25:17.227Z,85
2017-11-07T07:26:29.824Z,85
2017-11-07T07:27:42.110Z,90
2017-11-07T07:28:54.713Z,90
2017-11-07T07:30:07.330Z,90
2017-11-07T07:31:19.606Z,90
2017-11-07T07:32:31.568Z,95
2017-11-07T07:33:43.871Z,95
2017-11-07T07:34:56.163Z,95
2017-11-07T07:36:08.808Z,95
2017-11-07T07:37:21.058Z,95
2017-11-07T07:38:33.651Z,95
2017-11-07T07:39:46.253Z,100
2017-11-07T07:40:58.883Z,100
2017-11-07T07:42:10.840Z,100
2017-11-07T07:43:23.426Z,100
2017-11-07T07:44:35.703Z,100
2017-11-07T07:45:48.345Z,100
2017-11-07T07:47:00.994Z,105
2017-11-07T07:48:12.947Z,105
2017-11-07T07:49:25.238Z,105
2017-11-07T07:50:37.840Z,105
2017-11-07T07:51:50.122Z,105
2017-11-07T07:53:02.722Z,105
2017-11-07T07:54:14.994Z,110
2017-11-07T07:55:27.609Z,110
2017-11-07T07:56:39.882Z,110
2017-11-07T07:57:52.738Z,110
2017-11-07T07:59:05.030Z,110
2017-11-07T08:00:16.999Z,110
2017-11-07T08:01:28.947Z,115
2017-11-07T08:02:41.237Z,115
2017-11-07T08:03:53.833Z,115
2017-11-07T08:05:05.135Z,115
2017-11-07T08:06:17.753Z,115
2017-11-07T08:07:30.025Z,115
2017-11-07T08:08:42.621Z,115
2017-11-07T08:09:54.886Z,115
2017-11-07T08:11:07.157Z,120
2017-11-07T08:12:19.782Z,120
2017-11-07T08:13:31.734Z,120
2017-11-07T08:14:44.022Z,120
2017-11-07T08:15:56.623Z,120
2017-11-07T08:17:09.210Z,120
2017-11-07T08:18:21.811Z,120
2017-11-07T08:19:34.683Z,120
2017-11-07T08:20:46.977Z,125
2017-11-07T08:21:59.268Z,125
2017-11-07T08:23:11.243Z,125
2017-11-07T08:24:23.855Z,125
2017-11-07T08:25:36.451Z,125
2017-11-07T08:26:48.759Z,125
2017-11-07T08:28:01.048Z,125
2017-11-07T08:29:13.325Z,125
2017-11-07T08:30:25.643Z,125
2017-11-07T08:31:38.305Z,130
2017-11-07T08:32:50.906Z,130
2017-11-07T08:34:03.493Z,130
2017-11-07T08:35:16.087Z,130
2017-11-07T08:36:28.370Z,130
2017-11-07T08:37:40.981Z,130
2017-11-07T08:38:52.308Z,130
2017-11-07T08:40:04.611Z,130
2017-11-07T08:41:16.585Z,130
2017-11-07T08:42:28.871Z,130
2017-11-07T08:43:40.833Z,135
2017-11-07T08:44:53.439Z,135
2017-11-07T08:46:05.710Z,135
2017-11-07T08:47:18.026Z,135
2017-11-07T08:48:30.602Z,135
2017-11-07T08:49:42.898Z,135
2017-11-07T08:50:55.195Z,135
2017-11-07T08:52:07.786Z,135
2017-11-07T08:53:20.397Z,135
2017-11-07T08:54:32.996Z,135
2017-11-07T08:55:45.619Z,135
2017-11-07T08:56:58.220Z,135
2017-11-07T08:58:10.766Z,135
2017-11-07T08:59:23.029Z,135
2017-11-07T09:00:35.336Z,135
2017-11-07T09:01:47.592Z,135
2017-11-07T09:02:59.570Z,135
2017-11-07T09:04:11.544Z,135
2017-11-07T09:05:24.137Z,135
2017-11-07T09:06:36.756Z,140
2017-11-07T09:07:49.382Z,135
2017-11-07T09:09:01.669Z,135
2017-11-07T09:10:13.622Z,135
2017-11-07T09:11:25.620Z,135
2017-11-07T09:12:37.907Z,135
2017-11-07T09:13:50.226Z,140
2017-11-07T09:15:02.828Z,140
2017-11-07T09:16:15.119Z,135
2017-11-07T09:17:27.719Z,140
2017-11-07T09:18:40.009Z,135
2017-11-07T09:19:52.608Z,130
2017-11-07T09:21:05.239Z,130
2017-11-07T09:22:17.833Z,125
2017-11-07T09:23:30.449Z,125
2017-11-07T09:24:43.048Z,125
2017-11-07T09:25:55.341Z,125
2017-11-07T09:27:07.940Z,125
2017-11-07T09:28:20.228Z,125
2017-11-07T09:29:32.204Z,125
2017-11-07T09:30:44.822Z,125
2017-11-07T09:31:57.419Z,130
2017-11-07T09:33:10.054Z,130
2017-11-07T09:34:22.657Z,130
2017-11-07T09:35:35.245Z,130
2017-11-07T09:36:47.835Z,135
2017-11-07T09:38:00.448Z,145
2017-11-07T09:39:12.735Z,150
2017-11-07T09:40:25.363Z,160
2017-11-07T09:41:37.965Z,175
2017-11-07T09:42:50.580Z,190
2017-11-07T09:44:03.173Z,190
2017-11-07T09:45:15.793Z,195
2017-11-07T09:46:28.406Z,195
2017-11-07T09:47:40.385Z,45
